createdAt,value
2023-05-24T00:02:20.042Z,14.98
2023-05-24T00:04:49.346Z,15.27
2023-05-24T00:07:16.549Z,15.79
2023-05-24T00:09:43.658Z,15.24
2023-05-24T00:12:11.066Z,15.52
2023-05-24T00:14:38.269Z,14.84
2023-05-24T00:17:05.702Z,15.08
2023-05-24T00:19:32.789Z,15.26
2023-05-24T00:21:59.915Z,15.34
2023-05-24T00:24:27.075Z,15.69
2023-05-24T00:26:54.225Z,15.63
2023-05-24T00:29:21.409Z,15.11
2023-05-24T00:31:48.542Z,15.51
2023-05-24T00:34:15.884Z,15.10
2023-05-24T00:36:43.014Z,14.58
2023-05-24T00:39:10.097Z,14.89
2023-05-24T00:41:37.168Z,15.35
2023-05-24T00:44:04.321Z,14.88
2023-05-24T00:46:33.971Z,14.33
2023-05-24T00:49:01.667Z,14.59
2023-05-24T00:51:29.250Z,15.16
2023-05-24T00:53:56.781Z,15.15
2023-05-24T00:56:24.134Z,15.40
2023-05-24T00:58:54.838Z,15.05
2023-05-24T01:01:26.474Z,14.81
2023-05-24T01:03:54.719Z,14.67
2023-05-24T01:06:23.483Z,14.58
2023-05-24T01:09:34.392Z,14.51
2023-05-24T01:12:21.799Z,14.85
2023-05-24T01:15:05.191Z,14.83
2023-05-24T01:17:52.152Z,15.21
2023-05-24T01:20:22.480Z,14.79
2023-05-24T01:23:25.402Z,15.16
2023-05-24T01:26:48.751Z,15.29
2023-05-24T01:29:17.542Z,15.45
2023-05-24T01:31:45.182Z,15.14
2023-05-24T01:34:12.676Z,14.74
2023-05-24T01:36:39.783Z,15.19
2023-05-24T01:39:06.942Z,14.84
2023-05-24T01:42:02.230Z,15.13
2023-05-24T01:44:42.918Z,14.96
2023-05-24T01:47:57.418Z,14.95
2023-05-24T01:50:43.889Z,14.66
2023-05-24T01:53:17.977Z,15.12
2023-05-24T01:55:48.027Z,15.00
2023-05-24T01:58:20.274Z,14.42
2023-05-24T02:00:47.724Z,15.24
2023-05-24T02:03:16.170Z,15.18
2023-05-24T02:05:44.413Z,15.43
2023-05-24T02:08:12.773Z,15.12
2023-05-24T02:10:41.313Z,15.20
2023-05-24T02:13:09.345Z,15.92
2023-05-24T02:15:36.631Z,14.57
2023-05-24T02:18:04.461Z,15.69
2023-05-24T02:20:31.885Z,14.14
2023-05-24T02:22:59.952Z,14.97
2023-05-24T02:25:27.081Z,15.36
2023-05-24T02:27:54.251Z,15.70
2023-05-24T02:30:21.420Z,15.31
2023-05-24T02:32:48.677Z,15.31
2023-05-24T02:35:15.976Z,15.27
2023-05-24T02:37:43.128Z,15.62
2023-05-24T02:40:11.334Z,15.07
2023-05-24T02:42:38.473Z,15.65
2023-05-24T02:45:06.693Z,15.05
2023-05-24T02:47:33.844Z,14.42
2023-05-24T02:50:01.059Z,15.03
2023-05-24T02:52:28.219Z,14.81
2023-05-24T02:54:55.423Z,15.12
2023-05-24T02:57:25.917Z,14.54
2023-05-24T02:59:53.135Z,14.90
2023-05-24T03:02:21.974Z,15.24
2023-05-24T03:04:51.907Z,15.41
2023-05-24T03:07:19.034Z,15.78
2023-05-24T03:09:46.286Z,15.40
2023-05-24T03:12:14.077Z,15.09
2023-05-24T03:14:41.199Z,15.05
2023-05-24T03:17:08.430Z,14.85
2023-05-24T03:19:35.575Z,15.42
2023-05-24T03:22:02.744Z,15.85
2023-05-24T03:24:29.839Z,15.39
2023-05-24T03:26:56.947Z,15.46
2023-05-24T03:29:28.951Z,15.70
2023-05-24T03:31:56.173Z,15.49
2023-05-24T03:34:27.902Z,15.49
2023-05-24T03:36:56.465Z,14.86
2023-05-24T03:39:23.652Z,15.10
2023-05-24T03:41:50.789Z,15.08
2023-05-24T03:44:17.955Z,14.94
2023-05-24T03:46:46.420Z,14.64
2023-05-24T03:49:13.652Z,14.86
2023-05-24T03:51:40.919Z,14.42
2023-05-24T03:54:09.350Z,14.66
2023-05-24T03:56:37.463Z,15.75
2023-05-24T03:59:04.705Z,14.08
2023-05-24T04:01:34.494Z,15.83
2023-05-24T04:04:03.987Z,15.48
2023-05-24T04:06:31.517Z,14.74
2023-05-24T04:09:01.102Z,15.45
2023-05-24T04:11:28.886Z,15.86
2023-05-24T04:13:57.939Z,15.09
2023-05-24T04:16:26.394Z,15.17
2023-05-24T04:18:58.000Z,15.05
2023-05-24T04:21:25.284Z,16.20
2023-05-24T04:23:52.407Z,16.25
2023-05-24T04:26:21.190Z,15.61
2023-05-24T04:28:48.636Z,15.15
2023-05-24T04:31:16.535Z,16.28
2023-05-24T04:33:44.239Z,16.31
2023-05-24T04:36:11.754Z,14.80
2023-05-24T04:38:40.904Z,16.01
2023-05-24T04:41:08.346Z,16.15
2023-05-24T04:43:38.684Z,15.68
2023-05-24T04:46:08.331Z,15.57
2023-05-24T04:48:36.696Z,16.40
2023-05-24T04:51:06.160Z,16.36
2023-05-24T04:53:33.355Z,15.34
2023-05-24T04:56:00.621Z,15.44
2023-05-24T04:58:27.804Z,14.96
2023-05-24T05:00:54.931Z,15.82
2023-05-24T05:03:22.219Z,15.65
2023-05-24T05:05:49.370Z,15.65
2023-05-24T05:08:16.513Z,15.85
2023-05-24T05:10:44.493Z,15.49
2023-05-24T05:13:11.786Z,15.80
2023-05-24T05:15:40.900Z,16.13
2023-05-24T05:18:12.696Z,15.97
2023-05-24T05:20:40.000Z,14.99
2023-05-24T05:23:07.183Z,16.35
2023-05-24T05:25:34.289Z,16.02
2023-05-24T05:28:01.487Z,16.64
2023-05-24T05:30:28.920Z,16.60
2023-05-24T05:32:56.168Z,16.31
2023-05-24T05:35:23.923Z,16.27
2023-05-24T05:37:51.077Z,16.74
2023-05-24T05:40:20.994Z,15.98
2023-05-24T05:42:49.092Z,15.88
2023-05-24T05:45:16.985Z,15.30
2023-05-24T05:47:46.666Z,15.80
2023-05-24T05:50:14.109Z,16.21
2023-05-24T05:52:41.322Z,15.60
2023-05-24T05:55:09.909Z,15.93
2023-05-24T05:57:37.140Z,16.08
2023-05-24T06:00:05.187Z,16.13
2023-05-24T06:02:32.495Z,16.40
2023-05-24T06:05:00.264Z,16.01
2023-05-24T06:07:27.633Z,15.27
2023-05-24T06:09:54.932Z,16.40
2023-05-24T06:12:22.039Z,15.94
2023-05-24T06:14:50.692Z,16.48
2023-05-24T06:17:19.019Z,16.96
2023-05-24T06:20:11.142Z,16.17
2023-05-24T06:22:39.840Z,16.51
2023-05-24T06:25:07.422Z,16.70
2023-05-24T06:27:34.862Z,18.19
2023-05-24T06:30:02.217Z,17.63
2023-05-24T06:32:29.382Z,18.03
2023-05-24T06:34:59.857Z,17.81
2023-05-24T06:37:31.626Z,17.33
2023-05-24T06:39:58.829Z,17.16
2023-05-24T06:42:26.493Z,17.42
2023-05-24T06:44:54.128Z,17.75
2023-05-24T06:47:22.772Z,17.12
2023-05-24T06:49:51.384Z,17.29
2023-05-24T06:52:18.507Z,16.68
2023-05-24T06:54:45.697Z,16.90
2023-05-24T06:57:13.022Z,17.80
2023-05-24T07:00:08.827Z,18.11
2023-05-24T07:02:36.126Z,16.86
2023-05-24T07:05:12.091Z,17.02
2023-05-24T07:07:43.359Z,16.11
2023-05-24T07:10:12.338Z,18.10
2023-05-24T07:12:39.657Z,17.77
2023-05-24T07:15:10.009Z,17.38
2023-05-24T07:17:37.445Z,18.63
2023-05-24T07:20:13.670Z,16.99
2023-05-24T07:22:44.167Z,18.12
2023-05-24T07:25:11.522Z,18.53
2023-05-24T07:27:38.871Z,18.66
2023-05-24T07:30:16.476Z,17.26
2023-05-24T07:32:51.973Z,18.22
2023-05-24T07:35:19.528Z,17.99
2023-05-24T07:37:47.942Z,18.11
2023-05-24T07:40:18.561Z,19.41
2023-05-24T07:42:48.681Z,19.96
2023-05-24T07:45:15.939Z,20.17
2023-05-24T07:47:43.307Z,19.08
2023-05-24T07:50:11.836Z,17.72
2023-05-24T07:52:39.860Z,18.73
2023-05-24T07:55:07.857Z,19.55
2023-05-24T07:57:35.071Z,18.38
2023-05-24T08:00:10.189Z,18.27
2023-05-24T08:02:40.299Z,19.09
2023-05-24T08:05:09.453Z,18.72
2023-05-24T08:07:36.886Z,18.69
2023-05-24T08:10:04.355Z,18.90
2023-05-24T08:12:31.530Z,18.13
2023-05-24T08:14:58.908Z,18.08
2023-05-24T08:17:33.884Z,20.07
2023-05-24T08:20:01.140Z,18.81
2023-05-24T08:22:28.345Z,19.60
2023-05-24T08:24:55.525Z,19.75
2023-05-24T08:27:23.990Z,19.60
2023-05-24T08:29:51.420Z,19.09
2023-05-24T08:32:18.605Z,19.26
2023-05-24T08:34:46.356Z,19.97
2023-05-24T08:37:16.248Z,19.65
2023-05-24T08:39:45.595Z,19.38
2023-05-24T08:42:13.086Z,19.16
2023-05-24T08:44:53.508Z,19.49
2023-05-24T08:47:24.139Z,20.99
2023-05-24T08:49:55.665Z,20.00
2023-05-24T08:52:24.205Z,20.14
2023-05-24T08:54:53.025Z,20.19
2023-05-24T08:57:31.446Z,21.30
2023-05-24T08:59:59.368Z,20.59
2023-05-24T09:02:30.246Z,18.95
2023-05-24T09:05:00.523Z,20.36
2023-05-24T09:07:30.441Z,20.58
2023-05-24T09:10:18.648Z,20.18
2023-05-24T09:13:03.066Z,21.76
2023-05-24T09:15:35.009Z,18.59
2023-05-24T09:18:03.935Z,20.54
2023-05-24T09:20:31.370Z,20.29
2023-05-24T09:23:04.743Z,20.25
2023-05-24T09:25:32.309Z,19.31
2023-05-24T09:28:05.964Z,20.43
2023-05-24T09:30:33.876Z,20.53
2023-05-24T09:33:02.513Z,21.39
2023-05-24T09:35:31.368Z,20.61
2023-05-24T09:38:02.475Z,20.36
2023-05-24T09:40:30.802Z,19.80
2023-05-24T09:43:12.486Z,21.05
2023-05-24T09:45:49.312Z,21.40
2023-05-24T09:48:20.840Z,20.99
2023-05-24T09:51:11.557Z,19.86
2023-05-24T09:53:42.043Z,20.88
2023-05-24T09:56:10.506Z,20.70
2023-05-24T09:58:37.685Z,18.96
2023-05-24T10:01:14.624Z,19.93
2023-05-24T10:04:04.783Z,22.30
2023-05-24T10:06:41.171Z,21.43
2023-05-24T10:09:10.242Z,21.25
2023-05-24T10:11:37.773Z,21.65
2023-05-24T10:14:25.680Z,22.13
2023-05-24T10:16:53.244Z,22.27
2023-05-24T10:19:21.767Z,21.15
2023-05-24T10:21:50.406Z,19.83
2023-05-24T10:24:23.998Z,19.64
2023-05-24T10:26:53.340Z,19.62
2023-05-24T10:29:55.319Z,19.74
2023-05-24T10:32:25.623Z,19.58
2023-05-24T10:34:54.260Z,19.03
2023-05-24T10:37:22.228Z,20.27
2023-05-24T10:39:53.520Z,20.96
2023-05-24T10:42:21.564Z,21.06
2023-05-24T10:44:48.840Z,19.77
2023-05-24T10:47:18.017Z,19.86
2023-05-24T10:49:58.278Z,20.48
2023-05-24T10:52:43.637Z,21.15
2023-05-24T10:55:13.592Z,20.59
2023-05-24T10:57:41.750Z,23.26
2023-05-24T11:00:34.068Z,23.99
2023-05-24T11:03:10.881Z,23.26
2023-05-24T11:05:48.052Z,23.53
2023-05-24T11:08:35.838Z,21.81
2023-05-24T11:11:23.211Z,22.90
2023-05-24T11:13:58.057Z,24.12
2023-05-24T11:16:40.469Z,23.37
2023-05-24T11:19:38.525Z,23.72
2023-05-24T11:22:13.940Z,23.35
2023-05-24T11:24:42.249Z,23.45
2023-05-24T11:27:13.645Z,23.63
2023-05-24T11:29:48.785Z,23.00
2023-05-24T11:32:18.900Z,21.54
2023-05-24T11:34:48.542Z,22.00
2023-05-24T11:37:26.336Z,22.29
2023-05-24T11:39:58.982Z,22.76
2023-05-24T11:42:29.398Z,24.12
2023-05-24T11:45:00.054Z,22.80
2023-05-24T11:47:27.877Z,23.07
2023-05-24T11:49:57.699Z,21.25
2023-05-24T11:52:34.210Z,23.61
2023-05-24T11:55:01.378Z,23.99
2023-05-24T11:57:40.059Z,23.32
2023-05-24T12:00:11.504Z,21.66
2023-05-24T12:02:40.577Z,22.26
2023-05-24T12:05:10.581Z,23.00
2023-05-24T12:07:38.161Z,22.84
2023-05-24T12:10:06.868Z,22.99
2023-05-24T12:12:45.192Z,22.76
2023-05-24T12:15:14.829Z,22.29
2023-05-24T12:17:42.425Z,22.49
2023-05-24T12:20:12.315Z,23.03
2023-05-24T12:22:47.478Z,22.14
2023-05-24T12:25:21.212Z,21.99
2023-05-24T12:27:55.834Z,21.62
2023-05-24T12:30:29.081Z,22.66
2023-05-24T12:32:57.772Z,23.53
2023-05-24T12:35:25.427Z,23.16
2023-05-24T12:38:00.166Z,24.01
2023-05-24T12:40:27.647Z,25.17
2023-05-24T12:42:57.946Z,26.13
2023-05-24T12:45:27.652Z,27.98
2023-05-24T12:48:04.866Z,28.12
2023-05-24T12:50:53.929Z,26.88
2023-05-24T12:53:24.197Z,25.09
2023-05-24T12:55:55.868Z,24.15
2023-05-24T12:58:27.808Z,23.63
2023-05-24T13:00:55.357Z,23.34
2023-05-24T13:03:23.052Z,22.87
2023-05-24T13:05:50.963Z,23.26
2023-05-24T13:08:18.959Z,22.19
2023-05-24T13:10:50.910Z,22.35
2023-05-24T13:13:24.366Z,21.49
2023-05-24T13:15:52.678Z,22.90
2023-05-24T13:18:20.071Z,23.03
2023-05-24T13:20:47.647Z,24.32
2023-05-24T13:23:18.399Z,26.56
2023-05-24T13:25:45.651Z,24.71
2023-05-24T13:28:12.896Z,21.85
2023-05-24T13:31:23.273Z,23.73
2023-05-24T13:33:52.078Z,25.33
2023-05-24T13:36:19.850Z,27.40
2023-05-24T13:38:47.138Z,26.35
2023-05-24T13:41:14.324Z,26.41
2023-05-24T13:43:41.759Z,24.33
2023-05-24T13:46:10.360Z,27.35
2023-05-24T13:48:39.720Z,24.90
2023-05-24T13:51:06.870Z,25.07
2023-05-24T13:53:33.996Z,24.89
2023-05-24T13:56:01.227Z,24.17
2023-05-24T13:58:28.465Z,25.11
2023-05-24T14:00:56.444Z,24.75
2023-05-24T14:03:24.296Z,24.86
2023-05-24T14:05:54.389Z,23.88
2023-05-24T14:08:23.162Z,24.87
2023-05-24T14:10:50.304Z,24.33
2023-05-24T14:13:59.005Z,24.42
2023-05-24T14:16:10.965Z,25.70
2023-05-24T14:18:38.284Z,25.17
2023-05-24T14:21:26.020Z,24.18
2023-05-24T14:23:53.423Z,23.26
2023-05-24T14:26:23.785Z,24.70
2023-05-24T14:28:59.419Z,24.88
2023-05-24T14:31:29.843Z,25.34
2023-05-24T14:33:57.628Z,25.73
2023-05-24T14:36:28.327Z,26.83
2023-05-24T14:38:55.814Z,28.32
2023-05-24T14:41:29.004Z,26.34
2023-05-24T14:43:56.519Z,27.36
2023-05-24T14:46:26.871Z,27.06
2023-05-24T14:49:08.882Z,23.39
2023-05-24T14:51:51.043Z,24.71
2023-05-24T14:54:43.130Z,25.42
2023-05-24T14:57:13.890Z,26.95
2023-05-24T15:02:25.875Z,28.42
2023-05-24T15:04:53.378Z,26.42
2023-05-24T15:07:21.470Z,28.27
2023-05-24T15:09:48.874Z,28.52
2023-05-24T15:12:18.862Z,26.61
2023-05-24T15:14:46.025Z,26.59
2023-05-24T15:17:13.372Z,27.66
2023-05-24T15:19:40.751Z,27.81
2023-05-24T15:22:08.284Z,26.71
2023-05-24T15:24:37.690Z,26.11
2023-05-24T15:27:05.058Z,26.30
2023-05-24T15:29:32.605Z,26.41
2023-05-24T15:32:01.460Z,26.20
2023-05-24T15:34:28.932Z,26.35
2023-05-24T15:36:56.113Z,27.18
2023-05-24T15:39:23.451Z,23.89
2023-05-24T15:41:50.758Z,25.78
2023-05-24T15:44:21.655Z,26.60
2023-05-24T15:46:48.911Z,26.47
2023-05-24T15:49:16.148Z,27.91
2023-05-24T15:54:13.756Z,28.62
2023-05-24T15:56:40.882Z,28.86
2023-05-24T15:59:08.708Z,27.73
2023-05-24T16:01:37.259Z,27.47
2023-05-24T16:04:07.854Z,28.06
2023-05-24T16:06:37.090Z,29.55
2023-05-24T16:09:05.300Z,27.43
2023-05-24T16:11:43.242Z,28.94
2023-05-24T16:14:10.417Z,26.82
2023-05-24T16:16:38.018Z,28.31
2023-05-24T16:19:08.252Z,24.69
2023-05-24T16:21:35.965Z,23.40
2023-05-24T16:24:04.200Z,23.74
2023-05-24T16:26:32.248Z,24.66
2023-05-24T16:28:59.984Z,25.10
2023-05-24T16:31:27.200Z,26.08
2023-05-24T16:33:55.025Z,25.30
2023-05-24T16:36:22.172Z,25.39
2023-05-24T16:38:49.323Z,27.26
2023-05-24T16:41:16.715Z,26.72
2023-05-24T16:43:44.071Z,24.70
2023-05-24T16:46:11.698Z,26.17
2023-05-24T16:48:39.082Z,26.24
2023-05-24T16:51:06.624Z,26.43
2023-05-24T16:53:34.004Z,25.79
2023-05-24T16:56:01.799Z,25.33
2023-05-24T16:58:30.990Z,24.32
2023-05-24T17:00:58.528Z,23.72
2023-05-24T17:03:28.886Z,24.23
2023-05-24T17:06:03.389Z,25.11
2023-05-24T17:08:36.900Z,24.13
2023-05-24T17:11:05.268Z,23.55
2023-05-24T17:13:33.359Z,23.56
2023-05-24T17:16:05.031Z,23.85
2023-05-24T17:18:32.555Z,21.64
2023-05-24T17:21:05.063Z,23.06
2023-05-24T17:23:36.700Z,23.72
2023-05-24T17:26:05.752Z,22.91
2023-05-24T17:28:49.207Z,23.68
2023-05-24T17:31:16.924Z,23.30
2023-05-24T17:33:44.290Z,22.94
2023-05-24T17:36:12.256Z,23.44
2023-05-24T17:38:43.749Z,22.08
2023-05-24T17:41:14.609Z,21.20
2023-05-24T17:43:42.143Z,22.29
2023-05-24T17:46:37.320Z,22.46
2023-05-24T17:49:06.320Z,22.66
2023-05-24T17:51:34.999Z,22.23
2023-05-24T17:54:02.143Z,22.10
2023-05-24T17:56:30.346Z,22.12
2023-05-24T17:58:58.011Z,22.36
2023-05-24T18:01:25.795Z,22.54
2023-05-24T18:03:53.001Z,21.50
2023-05-24T18:06:20.491Z,21.42
2023-05-24T18:08:47.892Z,21.19
2023-05-24T18:11:15.687Z,21.26
2023-05-24T18:13:43.642Z,20.99
2023-05-24T18:16:12.061Z,21.90
2023-05-24T18:18:39.604Z,21.56
2023-05-24T18:21:09.570Z,21.77
2023-05-24T18:23:38.071Z,20.42
2023-05-24T18:26:12.385Z,21.74
2023-05-24T18:28:41.749Z,20.84
2023-05-24T18:31:10.756Z,20.79
2023-05-24T18:33:38.298Z,20.61
2023-05-24T18:36:06.335Z,20.62
2023-05-24T18:38:39.771Z,20.45
2023-05-24T18:41:09.847Z,20.42
2023-05-24T18:43:37.378Z,19.94
2023-05-24T18:46:04.805Z,20.00
2023-05-24T18:48:31.991Z,20.44
2023-05-24T18:50:59.224Z,20.51
2023-05-24T18:53:26.321Z,20.10
2023-05-24T18:55:53.504Z,19.65
2023-05-24T18:58:20.726Z,19.51
2023-05-24T19:00:47.888Z,19.52
2023-05-24T19:03:15.118Z,19.40
2023-05-24T19:05:44.136Z,19.56
2023-05-24T19:08:11.598Z,19.99
2023-05-24T19:10:38.840Z,19.66
2023-05-24T19:13:07.044Z,19.49
2023-05-24T19:15:39.213Z,19.16
2023-05-24T19:18:06.640Z,19.39
2023-05-24T19:20:33.964Z,19.20
2023-05-24T19:23:01.287Z,19.00
2023-05-24T19:25:28.677Z,18.82
2023-05-24T19:28:00.025Z,18.56
2023-05-24T19:30:27.929Z,18.56
2023-05-24T19:32:55.178Z,18.39
2023-05-24T19:35:22.520Z,18.21
2023-05-24T19:37:53.465Z,18.08
2023-05-24T19:40:21.970Z,18.58
2023-05-24T19:42:49.164Z,18.42
2023-05-24T19:45:16.526Z,18.95
2023-05-24T19:47:45.245Z,18.43
2023-05-24T19:50:12.443Z,18.46
2023-05-24T19:52:39.626Z,18.06
2023-05-24T19:55:10.117Z,18.01
2023-05-24T19:57:37.256Z,18.35
2023-05-24T20:00:06.356Z,18.46
2023-05-24T20:02:36.776Z,18.31
2023-05-24T20:05:07.447Z,18.00
2023-05-24T20:07:34.658Z,18.45
2023-05-24T20:10:05.538Z,18.42
2023-05-24T20:12:35.433Z,17.78
2023-05-24T20:15:08.183Z,17.78
2023-05-24T20:17:35.401Z,17.61
2023-05-24T20:20:04.330Z,17.43
2023-05-24T20:22:31.506Z,17.35
2023-05-24T20:24:58.728Z,17.04
2023-05-24T20:27:25.922Z,17.12
2023-05-24T20:29:53.111Z,17.07
2023-05-24T20:32:20.502Z,17.25
2023-05-24T20:34:47.764Z,16.87
2023-05-24T20:37:14.992Z,17.23
2023-05-24T20:39:42.191Z,17.06
2023-05-24T20:42:09.322Z,17.23
2023-05-24T20:44:36.566Z,17.23
2023-05-24T20:47:03.985Z,16.60
2023-05-24T20:49:31.361Z,16.53
2023-05-24T20:51:58.638Z,15.81
2023-05-24T20:54:26.091Z,15.34
2023-05-24T20:56:53.328Z,15.30
2023-05-24T20:59:20.619Z,15.35
2023-05-24T21:01:48.031Z,15.09
2023-05-24T21:04:15.500Z,15.07
2023-05-24T21:06:42.688Z,15.11
2023-05-24T21:09:09.977Z,15.98
2023-05-24T21:11:37.228Z,16.61
2023-05-24T21:14:04.453Z,17.09
2023-05-24T21:16:32.694Z,17.40
2023-05-24T21:19:02.740Z,17.55
2023-05-24T21:21:29.887Z,17.29
2023-05-24T21:24:03.612Z,16.16
2023-05-24T21:26:31.051Z,16.65
2023-05-24T21:28:58.332Z,16.65
2023-05-24T21:33:53.725Z,14.54
2023-05-24T21:36:24.343Z,14.08
2023-05-24T21:38:51.557Z,13.83
2023-05-24T21:41:19.405Z,13.61
2023-05-24T21:44:00.808Z,13.95
2023-05-24T21:46:33.049Z,14.27
2023-05-24T21:49:20.756Z,14.07
2023-05-24T21:51:49.016Z,14.16
2023-05-24T21:54:20.331Z,14.41
2023-05-24T21:56:51.399Z,14.72
2023-05-24T21:59:22.375Z,15.02
2023-05-24T22:01:53.143Z,14.87
2023-05-24T22:04:23.480Z,14.63
2023-05-24T22:07:04.404Z,15.06
2023-05-24T22:09:35.022Z,15.24
2023-05-24T22:12:19.427Z,15.48
2023-05-24T22:14:55.994Z,15.40
2023-05-24T22:17:24.888Z,15.63
2023-05-24T22:19:53.335Z,15.59
2023-05-24T22:22:27.279Z,15.51
2023-05-24T22:25:00.162Z,15.39
2023-05-24T22:27:30.822Z,15.47
2023-05-24T22:29:58.412Z,15.34
2023-05-24T22:32:25.633Z,15.50
2023-05-24T22:34:52.999Z,15.87
2023-05-24T22:37:20.465Z,15.96
2023-05-24T22:39:50.507Z,15.72
2023-05-24T22:42:18.940Z,16.01
2023-05-24T22:44:46.592Z,15.21
2023-05-24T22:47:14.184Z,14.95
2023-05-24T22:49:41.407Z,15.03
2023-05-24T22:52:15.020Z,15.44
2023-05-24T22:54:42.330Z,15.48
2023-05-24T22:57:09.892Z,15.13
2023-05-24T22:59:37.373Z,15.01
2023-05-24T23:02:04.635Z,15.29
2023-05-24T23:04:33.573Z,15.21
2023-05-24T23:07:07.100Z,15.56
2023-05-24T23:09:38.250Z,15.40
2023-05-24T23:12:08.539Z,14.89
2023-05-24T23:14:38.905Z,15.01
2023-05-24T23:17:17.141Z,15.70
2023-05-24T23:19:45.006Z,16.03
2023-05-24T23:22:18.498Z,15.67
2023-05-24T23:24:49.901Z,16.01
2023-05-24T23:27:42.372Z,16.45
2023-05-24T23:30:10.686Z,16.31
2023-05-24T23:32:41.643Z,16.54
2023-05-24T23:35:09.692Z,16.51
2023-05-24T23:37:37.593Z,16.57
2023-05-24T23:40:06.689Z,16.60
2023-05-24T23:42:37.879Z,16.54
2023-05-24T23:45:11.995Z,16.57
2023-05-24T23:47:39.195Z,16.38
2023-05-24T23:50:07.920Z,16.31
2023-05-24T23:52:37.966Z,16.15
2023-05-24T23:55:06.493Z,16.00
2023-05-24T23:57:39.196Z,16.23
